sensor_id;sensor_type;location;lat;lon;timestamp;pressure;altitude;pressure_sealevel;temperature;humidity
70916;BME280;58557;50.982;-3.222;2023-05-16T00:01:33;101851.94;;;13.72;38.32
70916;BME280;58557;50.982;-3.222;2023-05-16T00:03:58;101853.25;;;13.94;38.47
70916;BME280;58557;50.982;-3.222;2023-05-16T00:06:24;101852.46;;;14.45;38.54
70916;BME280;58557;50.982;-3.222;2023-05-16T00:08:50;101852.66;;;13.06;41.08
70916;BME280;58557;50.982;-3.222;2023-05-16T00:11:16;101853.91;;;13.60;39.66
70916;BME280;58557;50.982;-3.222;2023-05-16T00:13:42;101859.60;;;14.26;38.80
70916;BME280;58557;50.982;-3.222;2023-05-16T00:16:06;101861.79;;;13.91;38.33
70916;BME280;58557;50.982;-3.222;2023-05-16T00:18:32;101862.04;;;14.25;37.89
70916;BME280;58557;50.982;-3.222;2023-05-16T00:20:57;101863.68;;;13.58;38.70
70916;BME280;58557;50.982;-3.222;2023-05-16T00:23:22;101867.95;;;14.40;38.66
70916;BME280;58557;50.982;-3.222;2023-05-16T00:25:48;101869.27;;;13.97;39.73
70916;BME280;58557;50.982;-3.222;2023-05-16T00:28:14;101871.20;;;13.49;39.43
70916;BME280;58557;50.982;-3.222;2023-05-16T00:30:39;101873.04;;;14.05;38.98
70916;BME280;58557;50.982;-3.222;2023-05-16T00:33:04;101877.60;;;14.50;38.32
70916;BME280;58557;50.982;-3.222;2023-05-16T00:35:30;101878.82;;;14.73;38.42
70916;BME280;58557;50.982;-3.222;2023-05-16T00:37:55;101875.74;;;13.91;38.90
70916;BME280;58557;50.982;-3.222;2023-05-16T00:40:21;101883.79;;;13.91;38.89
70916;BME280;58557;50.982;-3.222;2023-05-16T00:42:46;101882.57;;;14.37;37.86
70916;BME280;58557;50.982;-3.222;2023-05-16T00:45:11;101882.08;;;13.71;38.98
70916;BME280;58557;50.982;-3.222;2023-05-16T00:47:37;101874.82;;;13.39;39.72
70916;BME280;58557;50.982;-3.222;2023-05-16T00:50:02;101872.18;;;13.33;39.08
70916;BME280;58557;50.982;-3.222;2023-05-16T00:52:27;101871.69;;;12.84;41.01
70916;BME280;58557;50.982;-3.222;2023-05-16T00:54:52;101868.39;;;13.23;40.28
70916;BME280;58557;50.982;-3.222;2023-05-16T00:57:18;101868.84;;;13.67;39.65
70916;BME280;58557;50.982;-3.222;2023-05-16T00:59:43;101871.75;;;14.22;38.32
70916;BME280;58557;50.982;-3.222;2023-05-16T01:02:07;101868.26;;;13.59;38.76
70916;BME280;58557;50.982;-3.222;2023-05-16T01:04:33;101865.54;;;13.45;39.25
70916;BME280;58557;50.982;-3.222;2023-05-16T01:06:58;101861.54;;;13.40;39.63
70916;BME280;58557;50.982;-3.222;2023-05-16T01:09:23;101865.71;;;12.72;40.36
70916;BME280;58557;50.982;-3.222;2023-05-16T01:11:52;101867.22;;;12.57;40.92
70916;BME280;58557;50.982;-3.222;2023-05-16T01:14:18;101871.57;;;12.99;40.16
70916;BME280;58557;50.982;-3.222;2023-05-16T01:16:43;101872.08;;;13.04;40.11
70916;BME280;58557;50.982;-3.222;2023-05-16T01:19:12;101872.72;;;13.24;39.76
70916;BME280;58557;50.982;-3.222;2023-05-16T01:21:41;101872.53;;;13.21;39.74
70916;BME280;58557;50.982;-3.222;2023-05-16T01:24:03;101871.24;;;13.01;40.39
70916;BME280;58557;50.982;-3.222;2023-05-16T01:26:21;101866.85;;;12.92;40.06
70916;BME280;58557;50.982;-3.222;2023-05-16T01:28:45;101862.40;;;12.45;40.60
70916;BME280;58557;50.982;-3.222;2023-05-16T01:31:10;101865.50;;;12.77;40.75
70916;BME280;58557;50.982;-3.222;2023-05-16T01:33:35;101869.92;;;12.94;40.79
70916;BME280;58557;50.982;-3.222;2023-05-16T01:36:05;101868.67;;;13.50;39.44
70916;BME280;58557;50.982;-3.222;2023-05-16T01:38:28;101870.97;;;13.52;39.47
70916;BME280;58557;50.982;-3.222;2023-05-16T01:40:52;101871.78;;;13.24;39.38
70916;BME280;58557;50.982;-3.222;2023-05-16T01:43:19;101872.01;;;12.75;39.73
70916;BME280;58557;50.982;-3.222;2023-05-16T01:45:46;101869.25;;;12.93;40.18
70916;BME280;58557;50.982;-3.222;2023-05-16T01:48:08;101868.77;;;12.67;40.02
70916;BME280;58557;50.982;-3.222;2023-05-16T01:50:35;101864.87;;;12.35;40.35
70916;BME280;58557;50.982;-3.222;2023-05-16T01:52:59;101861.96;;;12.58;40.34
70916;BME280;58557;50.982;-3.222;2023-05-16T01:55:26;101860.97;;;12.87;39.60
70916;BME280;58557;50.982;-3.222;2023-05-16T01:57:47;101861.81;;;12.86;40.83
70916;BME280;58557;50.982;-3.222;2023-05-16T02:00:12;101863.87;;;12.33;41.05
70916;BME280;58557;50.982;-3.222;2023-05-16T02:02:38;101866.12;;;12.61;40.02
70916;BME280;58557;50.982;-3.222;2023-05-16T02:05:04;101868.37;;;12.20;41.32
70916;BME280;58557;50.982;-3.222;2023-05-16T02:07:29;101864.66;;;12.08;41.65
70916;BME280;58557;50.982;-3.222;2023-05-16T02:09:54;101861.20;;;12.24;42.09
70916;BME280;58557;50.982;-3.222;2023-05-16T02:12:19;101861.64;;;12.08;41.75
70916;BME280;58557;50.982;-3.222;2023-05-16T02:14:45;101867.40;;;12.47;40.97
70916;BME280;58557;50.982;-3.222;2023-05-16T02:17:09;101868.26;;;12.19;41.56
70916;BME280;58557;50.982;-3.222;2023-05-16T02:19:34;101868.32;;;12.19;41.05
70916;BME280;58557;50.982;-3.222;2023-05-16T02:21:59;101869.34;;;12.39;40.55
70916;BME280;58557;50.982;-3.222;2023-05-16T02:24:24;101871.45;;;12.43;40.95
70916;BME280;58557;50.982;-3.222;2023-05-16T02:26:50;101872.49;;;12.61;40.94
70916;BME280;58557;50.982;-3.222;2023-05-16T02:29:15;101870.23;;;12.33;40.85
70916;BME280;58557;50.982;-3.222;2023-05-16T02:31:40;101868.65;;;11.36;42.82
70916;BME280;58557;50.982;-3.222;2023-05-16T02:34:05;101868.06;;;11.71;42.09
70916;BME280;58557;50.982;-3.222;2023-05-16T02:36:30;101865.55;;;11.34;42.13
70916;BME280;58557;50.982;-3.222;2023-05-16T02:38:55;101868.91;;;12.20;41.88
70916;BME280;58557;50.982;-3.222;2023-05-16T02:41:21;101873.87;;;12.23;41.69
70916;BME280;58557;50.982;-3.222;2023-05-16T02:43:46;101876.31;;;12.19;41.23
70916;BME280;58557;50.982;-3.222;2023-05-16T02:46:21;101869.90;;;11.52;42.55
70916;BME280;58557;50.982;-3.222;2023-05-16T02:48:36;101870.33;;;11.59;42.14
70916;BME280;58557;50.982;-3.222;2023-05-16T02:51:01;101870.25;;;11.70;42.38
70916;BME280;58557;50.982;-3.222;2023-05-16T02:53:26;101873.44;;;11.71;42.33
70916;BME280;58557;50.982;-3.222;2023-05-16T02:55:52;101871.82;;;12.05;41.44
70916;BME280;58557;50.982;-3.222;2023-05-16T02:58:17;101872.97;;;12.02;40.72
70916;BME280;58557;50.982;-3.222;2023-05-16T03:00:42;101875.52;;;12.59;40.16
70916;BME280;58557;50.982;-3.222;2023-05-16T03:03:07;101875.68;;;11.37;41.99
70916;BME280;58557;50.982;-3.222;2023-05-16T03:05:32;101875.72;;;11.86;41.51
70916;BME280;58557;50.982;-3.222;2023-05-16T03:07:58;101872.88;;;12.17;41.35
70916;BME280;58557;50.982;-3.222;2023-05-16T03:10:23;101874.08;;;11.87;41.03
70916;BME280;58557;50.982;-3.222;2023-05-16T03:12:48;101875.27;;;12.09;41.58
70916;BME280;58557;50.982;-3.222;2023-05-16T03:15:13;101871.28;;;11.91;41.75
70916;BME280;58557;50.982;-3.222;2023-05-16T03:17:38;101867.89;;;11.80;42.44
70916;BME280;58557;50.982;-3.222;2023-05-16T03:20:04;101865.80;;;11.14;43.26
70916;BME280;58557;50.982;-3.222;2023-05-16T03:22:28;101866.14;;;11.04;43.89
70916;BME280;58557;50.982;-3.222;2023-05-16T03:24:53;101868.03;;;11.38;43.45
70916;BME280;58557;50.982;-3.222;2023-05-16T03:27:18;101867.33;;;11.83;42.58
70916;BME280;58557;50.982;-3.222;2023-05-16T03:29:43;101868.84;;;11.98;41.49
70916;BME280;58557;50.982;-3.222;2023-05-16T03:32:10;101866.41;;;11.21;42.68
70916;BME280;58557;50.982;-3.222;2023-05-16T03:34:35;101860.93;;;11.70;42.16
70916;BME280;58557;50.982;-3.222;2023-05-16T03:37:00;101857.72;;;11.80;40.76
70916;BME280;58557;50.982;-3.222;2023-05-16T03:39:25;101856.09;;;11.52;41.47
70916;BME280;58557;50.982;-3.222;2023-05-16T03:41:50;101855.87;;;11.14;43.19
70916;BME280;58557;50.982;-3.222;2023-05-16T03:44:16;101855.79;;;10.90;43.90
70916;BME280;58557;50.982;-3.222;2023-05-16T03:46:41;101861.23;;;11.41;43.36
70916;BME280;58557;50.982;-3.222;2023-05-16T03:49:06;101863.05;;;10.77;44.36
70916;BME280;58557;50.982;-3.222;2023-05-16T03:51:32;101863.35;;;11.67;43.09
70916;BME280;58557;50.982;-3.222;2023-05-16T03:53:57;101865.98;;;11.50;43.02
70916;BME280;58557;50.982;-3.222;2023-05-16T03:56:22;101864.03;;;11.63;43.20
70916;BME280;58557;50.982;-3.222;2023-05-16T03:58:50;101860.33;;;10.69;44.21
70916;BME280;58557;50.982;-3.222;2023-05-16T04:01:13;101857.82;;;10.68;44.87
70916;BME280;58557;50.982;-3.222;2023-05-16T04:03:37;101860.76;;;11.82;43.88
70916;BME280;58557;50.982;-3.222;2023-05-16T04:06:03;101863.03;;;11.13;44.23
70916;BME280;58557;50.982;-3.222;2023-05-16T04:08:27;101866.65;;;11.30;43.91
70916;BME280;58557;50.982;-3.222;2023-05-16T04:10:53;101866.29;;;11.46;42.21
70916;BME280;58557;50.982;-3.222;2023-05-16T04:13:18;101867.40;;;11.93;42.52
70916;BME280;58557;50.982;-3.222;2023-05-16T04:15:43;101870.73;;;12.39;41.48
70916;BME280;58557;50.982;-3.222;2023-05-16T04:18:08;101869.55;;;12.24;40.95
70916;BME280;58557;50.982;-3.222;2023-05-16T04:20:33;101875.37;;;10.38;44.49
70916;BME280;58557;50.982;-3.222;2023-05-16T04:22:58;101876.65;;;10.35;44.70
70916;BME280;58557;50.982;-3.222;2023-05-16T04:25:23;101881.63;;;10.27;45.85
70916;BME280;58557;50.982;-3.222;2023-05-16T04:27:48;101881.00;;;9.79;46.44
70916;BME280;58557;50.982;-3.222;2023-05-16T04:30:14;101875.85;;;8.74;50.03
70916;BME280;58557;50.982;-3.222;2023-05-16T04:32:39;101880.39;;;10.08;46.82
70916;BME280;58557;50.982;-3.222;2023-05-16T04:35:05;101874.24;;;8.36;49.91
70916;BME280;58557;50.982;-3.222;2023-05-16T04:37:30;101878.24;;;8.93;50.04
70916;BME280;58557;50.982;-3.222;2023-05-16T04:39:55;101881.15;;;9.15;48.55
70916;BME280;58557;50.982;-3.222;2023-05-16T04:42:20;101885.50;;;9.06;49.09
70916;BME280;58557;50.982;-3.222;2023-05-16T04:44:46;101886.29;;;10.84;47.60
70916;BME280;58557;50.982;-3.222;2023-05-16T04:47:10;101890.54;;;9.75;47.16
70916;BME280;58557;50.982;-3.222;2023-05-16T04:49:36;101894.48;;;9.90;47.53
70916;BME280;58557;50.982;-3.222;2023-05-16T04:52:01;101900.59;;;9.56;47.42
70916;BME280;58557;50.982;-3.222;2023-05-16T04:54:26;101902.25;;;10.69;45.32
70916;BME280;58557;50.982;-3.222;2023-05-16T04:56:51;101906.55;;;10.79;45.37
70916;BME280;58557;50.982;-3.222;2023-05-16T04:59:16;101900.76;;;11.30;44.85
70916;BME280;58557;50.982;-3.222;2023-05-16T05:01:41;101903.73;;;11.35;43.50
70916;BME280;58557;50.982;-3.222;2023-05-16T05:04:07;101902.83;;;11.49;44.14
70916;BME280;58557;50.982;-3.222;2023-05-16T05:06:32;101905.02;;;10.24;44.60
70916;BME280;58557;50.982;-3.222;2023-05-16T05:08:57;101902.40;;;11.17;45.12
70916;BME280;58557;50.982;-3.222;2023-05-16T05:11:22;101906.60;;;10.28;46.83
70916;BME280;58557;50.982;-3.222;2023-05-16T05:13:47;101905.50;;;10.39;45.81
70916;BME280;58557;50.982;-3.222;2023-05-16T05:16:12;101901.88;;;11.43;44.03
70916;BME280;58557;50.982;-3.222;2023-05-16T05:18:37;101907.17;;;10.36;46.51
70916;BME280;58557;50.982;-3.222;2023-05-16T05:21:02;101911.02;;;10.35;45.32
70916;BME280;58557;50.982;-3.222;2023-05-16T05:23:27;101910.04;;;11.84;43.04
70916;BME280;58557;50.982;-3.222;2023-05-16T05:25:53;101915.70;;;10.70;43.70
70916;BME280;58557;50.982;-3.222;2023-05-16T05:28:18;101916.24;;;10.91;44.71
70916;BME280;58557;50.982;-3.222;2023-05-16T05:30:43;101917.13;;;11.05;44.72
70916;BME280;58557;50.982;-3.222;2023-05-16T05:33:10;101911.38;;;11.51;43.37
70916;BME280;58557;50.982;-3.222;2023-05-16T05:35:33;101915.18;;;8.82;47.84
70916;BME280;58557;50.982;-3.222;2023-05-16T05:37:58;101913.98;;;11.60;44.15
70916;BME280;58557;50.982;-3.222;2023-05-16T05:40:23;101919.93;;;9.76;49.27
70916;BME280;58557;50.982;-3.222;2023-05-16T05:42:48;101919.21;;;9.46;49.40
70916;BME280;58557;50.982;-3.222;2023-05-16T05:45:14;101923.03;;;10.07;48.29
70916;BME280;58557;50.982;-3.222;2023-05-16T05:47:39;101924.65;;;11.86;45.00
70916;BME280;58557;50.982;-3.222;2023-05-16T05:50:06;101926.14;;;11.91;44.90
70916;BME280;58557;50.982;-3.222;2023-05-16T05:52:30;101928.29;;;12.32;42.69
70916;BME280;58557;50.982;-3.222;2023-05-16T05:54:56;101928.11;;;12.87;42.70
70916;BME280;58557;50.982;-3.222;2023-05-16T05:57:22;101929.46;;;12.22;43.16
70916;BME280;58557;50.982;-3.222;2023-05-16T05:59:47;101935.07;;;12.73;42.51
70916;BME280;58557;50.982;-3.222;2023-05-16T06:02:13;101939.54;;;12.54;43.21
70916;BME280;58557;50.982;-3.222;2023-05-16T06:04:38;101939.54;;;13.33;41.98
70916;BME280;58557;50.982;-3.222;2023-05-16T06:07:05;101940.15;;;13.67;41.33
70916;BME280;58557;50.982;-3.222;2023-05-16T06:09:29;101945.01;;;12.04;42.40
70916;BME280;58557;50.982;-3.222;2023-05-16T06:11:55;101947.10;;;12.42;43.20
70916;BME280;58557;50.982;-3.222;2023-05-16T06:14:20;101945.58;;;12.84;42.94
70916;BME280;58557;50.982;-3.222;2023-05-16T06:16:46;101946.89;;;12.26;44.47
70916;BME280;58557;50.982;-3.222;2023-05-16T06:19:11;101945.32;;;11.56;45.08
70916;BME280;58557;50.982;-3.222;2023-05-16T06:21:37;101951.75;;;11.91;44.53
70916;BME280;58557;50.982;-3.222;2023-05-16T06:24:03;101955.71;;;13.23;42.38
70916;BME280;58557;50.982;-3.222;2023-05-16T06:26:28;101953.68;;;13.47;41.43
70916;BME280;58557;50.982;-3.222;2023-05-16T06:28:53;101955.78;;;14.33;40.43
70916;BME280;58557;50.982;-3.222;2023-05-16T06:31:19;101953.14;;;14.06;40.20
70916;BME280;58557;50.982;-3.222;2023-05-16T06:33:44;101954.86;;;14.83;40.27
70916;BME280;58557;50.982;-3.222;2023-05-16T06:36:10;101958.45;;;13.16;41.91
70916;BME280;58557;50.982;-3.222;2023-05-16T06:38:35;101962.19;;;15.21;39.65
70916;BME280;58557;50.982;-3.222;2023-05-16T06:41:00;101957.49;;;13.07;42.04
70916;BME280;58557;50.982;-3.222;2023-05-16T06:43:26;101961.05;;;13.68;42.72
70916;BME280;58557;50.982;-3.222;2023-05-16T06:45:51;101964.16;;;12.77;44.49
70916;BME280;58557;50.982;-3.222;2023-05-16T06:48:18;101964.27;;;13.50;44.32
70916;BME280;58557;50.982;-3.222;2023-05-16T06:50:45;101960.32;;;12.45;46.92
70916;BME280;58557;50.982;-3.222;2023-05-16T06:53:08;101965.02;;;12.92;46.70
70916;BME280;58557;50.982;-3.222;2023-05-16T06:55:33;101964.54;;;12.42;49.01
70916;BME280;58557;50.982;-3.222;2023-05-16T06:57:59;101967.69;;;13.58;46.35
70916;BME280;58557;50.982;-3.222;2023-05-16T07:00:25;101969.61;;;13.67;45.51
70916;BME280;58557;50.982;-3.222;2023-05-16T07:02:50;101972.54;;;13.22;46.75
70916;BME280;58557;50.982;-3.222;2023-05-16T07:05:16;101975.17;;;13.49;46.34
70916;BME280;58557;50.982;-3.222;2023-05-16T07:07:41;101972.70;;;13.53;46.49
70916;BME280;58557;50.982;-3.222;2023-05-16T07:10:08;101977.41;;;14.60;44.68
70916;BME280;58557;50.982;-3.222;2023-05-16T07:12:34;101978.87;;;14.01;45.98
70916;BME280;58557;50.982;-3.222;2023-05-16T07:14:59;101978.33;;;15.36;43.29
70916;BME280;58557;50.982;-3.222;2023-05-16T07:17:25;101977.00;;;16.61;40.25
70916;BME280;58557;50.982;-3.222;2023-05-16T07:19:50;101976.10;;;16.07;40.01
70916;BME280;58557;50.982;-3.222;2023-05-16T07:22:16;101971.97;;;17.09;39.84
70916;BME280;58557;50.982;-3.222;2023-05-16T07:24:42;101972.51;;;16.55;37.94
70916;BME280;58557;50.982;-3.222;2023-05-16T07:27:08;101981.26;;;15.63;38.38
70916;BME280;58557;50.982;-3.222;2023-05-16T07:29:33;101977.88;;;16.58;38.16
70916;BME280;58557;50.982;-3.222;2023-05-16T07:31:59;101981.91;;;15.32;39.17
70916;BME280;58557;50.982;-3.222;2023-05-16T07:34:24;101976.52;;;15.23;38.37
70916;BME280;58557;50.982;-3.222;2023-05-16T07:36:50;101983.84;;;15.90;37.49
70916;BME280;58557;50.982;-3.222;2023-05-16T07:39:16;101984.18;;;16.52;38.40
70916;BME280;58557;50.982;-3.222;2023-05-16T07:41:41;101984.29;;;15.85;36.96
70916;BME280;58557;50.982;-3.222;2023-05-16T07:44:07;101986.42;;;15.81;36.57
70916;BME280;58557;50.982;-3.222;2023-05-16T07:46:32;101987.01;;;15.25;37.33
70916;BME280;58557;50.982;-3.222;2023-05-16T07:48:58;101984.47;;;15.48;36.62
70916;BME280;58557;50.982;-3.222;2023-05-16T07:51:24;101985.68;;;14.89;36.62
70916;BME280;58557;50.982;-3.222;2023-05-16T07:53:50;101988.02;;;14.66;38.20
70916;BME280;58557;50.982;-3.222;2023-05-16T07:56:16;101986.61;;;15.68;37.40
70916;BME280;58557;50.982;-3.222;2023-05-16T07:58:41;101985.58;;;16.49;36.02
70916;BME280;58557;50.982;-3.222;2023-05-16T08:01:07;101983.16;;;16.76;34.61
70916;BME280;58557;50.982;-3.222;2023-05-16T08:03:32;101981.68;;;16.35;34.61
70916;BME280;58557;50.982;-3.222;2023-05-16T08:05:58;101984.45;;;16.40;35.11
70916;BME280;58557;50.982;-3.222;2023-05-16T08:08:24;101990.67;;;15.67;36.42
70916;BME280;58557;50.982;-3.222;2023-05-16T08:10:50;101992.45;;;16.14;35.87
70916;BME280;58557;50.982;-3.222;2023-05-16T08:13:15;101992.47;;;17.74;33.87
70916;BME280;58557;50.982;-3.222;2023-05-16T08:15:41;101997.64;;;15.52;37.07
70916;BME280;58557;50.982;-3.222;2023-05-16T08:18:12;101998.47;;;14.75;39.12
70916;BME280;58557;50.982;-3.222;2023-05-16T08:20:32;102000.11;;;15.83;38.23
70916;BME280;58557;50.982;-3.222;2023-05-16T08:22:58;101997.89;;;15.98;37.76
70916;BME280;58557;50.982;-3.222;2023-05-16T08:25:23;102001.67;;;16.06;39.11
70916;BME280;58557;50.982;-3.222;2023-05-16T08:27:49;102001.00;;;15.64;37.37
70916;BME280;58557;50.982;-3.222;2023-05-16T08:30:20;102000.69;;;15.49;37.88
70916;BME280;58557;50.982;-3.222;2023-05-16T08:32:41;101990.42;;;17.54;36.61
70916;BME280;58557;50.982;-3.222;2023-05-16T08:35:07;101987.34;;;17.18;35.30
70916;BME280;58557;50.982;-3.222;2023-05-16T08:37:32;101987.92;;;18.14;34.96
70916;BME280;58557;50.982;-3.222;2023-05-16T08:39:58;101986.85;;;17.73;33.15
70916;BME280;58557;50.982;-3.222;2023-05-16T08:42:23;101984.11;;;17.54;33.69
70916;BME280;58557;50.982;-3.222;2023-05-16T08:44:49;101984.45;;;17.15;34.14
70916;BME280;58557;50.982;-3.222;2023-05-16T08:47:18;101982.96;;;17.16;35.99
70916;BME280;58557;50.982;-3.222;2023-05-16T08:49:40;101985.42;;;16.19;37.29
70916;BME280;58557;50.982;-3.222;2023-05-16T08:52:07;101989.20;;;15.68;36.41
70916;BME280;58557;50.982;-3.222;2023-05-16T08:54:32;101989.12;;;16.36;36.09
70916;BME280;58557;50.982;-3.222;2023-05-16T08:56:57;101982.76;;;17.44;35.23
70916;BME280;58557;50.982;-3.222;2023-05-16T08:59:23;101982.39;;;17.65;33.83
70916;BME280;58557;50.982;-3.222;2023-05-16T09:01:48;101988.31;;;16.87;35.31
70916;BME280;58557;50.982;-3.222;2023-05-16T09:04:15;101989.27;;;18.83;32.35
70916;BME280;58557;50.982;-3.222;2023-05-16T09:06:40;101987.21;;;17.47;32.34
70916;BME280;58557;50.982;-3.222;2023-05-16T09:09:06;101993.59;;;16.11;34.04
70916;BME280;58557;50.982;-3.222;2023-05-16T09:11:31;101992.70;;;16.53;34.16
70916;BME280;58557;50.982;-3.222;2023-05-16T09:13:57;101990.32;;;16.31;35.88
70916;BME280;58557;50.982;-3.222;2023-05-16T09:16:23;101980.00;;;17.65;34.39
70916;BME280;58557;50.982;-3.222;2023-05-16T09:18:53;101981.16;;;16.59;35.07
70916;BME280;58557;50.982;-3.222;2023-05-16T09:21:14;101983.54;;;16.45;35.00
70916;BME280;58557;50.982;-3.222;2023-05-16T09:23:41;101977.27;;;16.87;35.01
70916;BME280;58557;50.982;-3.222;2023-05-16T09:26:05;101975.81;;;17.60;35.25
70916;BME280;58557;50.982;-3.222;2023-05-16T09:28:31;101969.94;;;18.18;32.98
70916;BME280;58557;50.982;-3.222;2023-05-16T09:30:56;101977.82;;;17.33;33.50
70916;BME280;58557;50.982;-3.222;2023-05-16T09:33:22;101973.55;;;17.40;33.82
70916;BME280;58557;50.982;-3.222;2023-05-16T09:35:55;101975.27;;;16.59;34.53
70916;BME280;58557;50.982;-3.222;2023-05-16T09:38:14;101976.23;;;16.99;34.02
70916;BME280;58557;50.982;-3.222;2023-05-16T09:40:39;101975.46;;;16.76;34.81
70916;BME280;58557;50.982;-3.222;2023-05-16T09:43:05;101971.21;;;16.94;33.89
70916;BME280;58557;50.982;-3.222;2023-05-16T09:45:30;101976.22;;;16.04;35.03
70916;BME280;58557;50.982;-3.222;2023-05-16T09:48:01;101973.08;;;15.57;36.10
70916;BME280;58557;50.982;-3.222;2023-05-16T09:50:23;101973.76;;;15.47;37.54
70916;BME280;58557;50.982;-3.222;2023-05-16T09:52:47;101976.50;;;15.62;37.05
70916;BME280;58557;50.982;-3.222;2023-05-16T09:55:12;101981.38;;;15.95;36.46
70916;BME280;58557;50.982;-3.222;2023-05-16T09:57:45;101981.38;;;15.47;37.41
70916;BME280;58557;50.982;-3.222;2023-05-16T10:00:05;101979.32;;;16.05;35.42
70916;BME280;58557;50.982;-3.222;2023-05-16T10:02:30;101982.42;;;15.09;35.66
70916;BME280;58557;50.982;-3.222;2023-05-16T10:04:55;101981.60;;;15.60;35.78
70916;BME280;58557;50.982;-3.222;2023-05-16T10:07:20;101977.70;;;15.40;35.82
70916;BME280;58557;50.982;-3.222;2023-05-16T10:09:53;101984.32;;;15.55;36.62
70916;BME280;58557;50.982;-3.222;2023-05-16T10:12:14;101979.75;;;14.78;37.42
70916;BME280;58557;50.982;-3.222;2023-05-16T10:14:40;101982.72;;;14.26;38.47
70916;BME280;58557;50.982;-3.222;2023-05-16T10:17:06;101980.36;;;14.33;39.66
70916;BME280;58557;50.982;-3.222;2023-05-16T10:19:31;101985.28;;;14.62;38.58
70916;BME280;58557;50.982;-3.222;2023-05-16T10:21:56;101975.42;;;14.58;37.80
70916;BME280;58557;50.982;-3.222;2023-05-16T10:24:23;101982.02;;;14.48;38.66
70916;BME280;58557;50.982;-3.222;2023-05-16T10:26:45;101985.11;;;14.42;38.37
70916;BME280;58557;50.982;-3.222;2023-05-16T10:29:11;101985.70;;;13.68;39.28
70916;BME280;58557;50.982;-3.222;2023-05-16T10:31:37;101986.80;;;13.26;40.84
70916;BME280;58557;50.982;-3.222;2023-05-16T10:34:07;101981.24;;;14.57;40.43
70916;BME280;58557;50.982;-3.222;2023-05-16T10:36:28;101980.13;;;15.16;37.49
70916;BME280;58557;50.982;-3.222;2023-05-16T10:38:54;101979.52;;;15.42;36.59
70916;BME280;58557;50.982;-3.222;2023-05-16T10:41:19;101981.95;;;14.97;36.81
70916;BME280;58557;50.982;-3.222;2023-05-16T10:46:10;101982.33;;;15.88;37.55
70916;BME280;58557;50.982;-3.222;2023-05-16T10:48:38;101972.63;;;15.38;35.84
70916;BME280;58557;50.982;-3.222;2023-05-16T10:51:04;101969.42;;;15.92;35.63
70916;BME280;58557;50.982;-3.222;2023-05-16T10:53:30;101965.68;;;16.90;34.81
70916;BME280;58557;50.982;-3.222;2023-05-16T10:56:05;101970.16;;;15.65;35.26
70916;BME280;58557;50.982;-3.222;2023-05-16T10:58:23;101970.38;;;15.87;35.65
70916;BME280;58557;50.982;-3.222;2023-05-16T11:00:46;101970.94;;;15.83;35.68
70916;BME280;58557;50.982;-3.222;2023-05-16T11:03:20;101962.29;;;16.06;36.75
70916;BME280;58557;50.982;-3.222;2023-05-16T11:05:36;101967.01;;;15.94;35.90
70916;BME280;58557;50.982;-3.222;2023-05-16T11:08:03;101966.56;;;14.57;37.22
70916;BME280;58557;50.982;-3.222;2023-05-16T11:10:27;101962.62;;;14.38;37.61
70916;BME280;58557;50.982;-3.222;2023-05-16T11:12:53;101960.68;;;14.51;38.00
70916;BME280;58557;50.982;-3.222;2023-05-16T11:15:26;101958.13;;;15.04;36.59
70916;BME280;58557;50.982;-3.222;2023-05-16T11:17:44;101958.92;;;15.43;35.90
70916;BME280;58557;50.982;-3.222;2023-05-16T11:22:38;101961.15;;;16.23;34.67
70916;BME280;58557;50.982;-3.222;2023-05-16T11:25:02;101960.96;;;15.75;34.67
70916;BME280;58557;50.982;-3.222;2023-05-16T11:27:29;101954.49;;;15.91;34.54
70916;BME280;58557;50.982;-3.222;2023-05-16T11:29:54;101957.60;;;15.20;34.83
70916;BME280;58557;50.982;-3.222;2023-05-16T11:32:20;101954.69;;;15.95;34.21
70916;BME280;58557;50.982;-3.222;2023-05-16T11:34:46;101950.65;;;16.41;34.49
70916;BME280;58557;50.982;-3.222;2023-05-16T11:37:10;101941.21;;;16.36;35.10
70916;BME280;58557;50.982;-3.222;2023-05-16T11:39:36;101944.01;;;16.75;35.23
70916;BME280;58557;50.982;-3.222;2023-05-16T11:42:01;101959.28;;;16.07;35.77
70916;BME280;58557;50.982;-3.222;2023-05-16T11:44:27;101959.59;;;15.01;36.64
70916;BME280;58557;50.982;-3.222;2023-05-16T11:46:52;101963.13;;;15.32;36.11
70916;BME280;58557;50.982;-3.222;2023-05-16T11:49:18;101961.94;;;16.12;35.19
70916;BME280;58557;50.982;-3.222;2023-05-16T11:51:44;101952.65;;;16.52;34.66
70916;BME280;58557;50.982;-3.222;2023-05-16T11:54:10;101951.78;;;16.55;35.20
70916;BME280;58557;50.982;-3.222;2023-05-16T11:56:35;101958.46;;;15.95;35.31
70916;BME280;58557;50.982;-3.222;2023-05-16T11:59:01;101951.51;;;16.11;35.51
70916;BME280;58557;50.982;-3.222;2023-05-16T12:01:31;101946.81;;;17.34;34.56
70916;BME280;58557;50.982;-3.222;2023-05-16T12:03:55;101950.03;;;15.98;35.51
70916;BME280;58557;50.982;-3.222;2023-05-16T12:06:22;101957.56;;;15.55;36.62
70916;BME280;58557;50.982;-3.222;2023-05-16T12:08:49;101946.78;;;16.51;35.21
70916;BME280;58557;50.982;-3.222;2023-05-16T12:11:09;101951.03;;;17.00;34.38
70916;BME280;58557;50.982;-3.222;2023-05-16T12:13:35;101953.38;;;16.41;34.90
70916;BME280;58557;50.982;-3.222;2023-05-16T12:16:01;101955.01;;;15.68;36.57
70916;BME280;58557;50.982;-3.222;2023-05-16T12:18:26;101944.41;;;16.46;35.36
70916;BME280;58557;50.982;-3.222;2023-05-16T12:20:52;101948.08;;;15.08;37.02
70916;BME280;58557;50.982;-3.222;2023-05-16T12:23:18;101945.70;;;16.03;37.40
70916;BME280;58557;50.982;-3.222;2023-05-16T12:25:45;101951.52;;;15.66;37.40
70916;BME280;58557;50.982;-3.222;2023-05-16T12:28:11;101950.33;;;16.00;36.19
70916;BME280;58557;50.982;-3.222;2023-05-16T12:30:34;101946.78;;;16.25;35.65
70916;BME280;58557;50.982;-3.222;2023-05-16T12:33:01;101945.74;;;15.97;35.62
70916;BME280;58557;50.982;-3.222;2023-05-16T12:35:29;101941.52;;;16.39;35.13